City Of Vicksburg — WDC2660 — position and weather

sailwx.info

Track history (hours):
 
Tides and Currents Weather Stations Pressure Air Temp Water Temp Dewpoint Dewpoint Depression Visibility Wind Speed Wind Dir Waves Ship Positions

City Of Vicksburg

More information available from US FCC via Universal Licensing System and Coast Guard Vessel Documentation Center.

Last reported at 2014-Jul-14 11:32 UTC. Time now 2014-Jul-24 19:19 UTC.
Position N 30°13' W 091°09'.
Warning: this ship's position is 10 days out of date.

Length 320 m.

Type: Towing. MMSI: 366996120.

Date/timePositionNaut miles runAvg speedWind from/ knotsBaromVisibWave heightAir tempDewpointWater temp
2014-Jul-14 11:32N 30°13' W 091°09'3 2.3
2014-Jul-14 10:14N 30°12' W 091°06'6 3.4
2014-Jul-14 08:30N 30°08' W 091°02'4 4.2
2014-Jul-14 07:28N 30°07' W 090°57'2 1.8
2014-Jul-14 06:08N 30°05' W 090°55'3 4.4
2014-Jul-14 05:24N 30°04' W 090°51'4 4.8
2014-Jul-14 04:34N 29°60' W 090°50'4 3.9
2014-Jul-14 03:32N 30°01' W 090°46'5 4.9
2014-Jul-14 02:33N 30°03' W 090°40'4 3.5
2014-Jul-14 01:29N 30°03' W 090°36'0 0.2
2014-Jul-13 23:21N 30°03' W 090°36'0 0.0
2014-Jul-13 22:33N 30°03' W 090°36'0 0.0
2014-Jul-13 12:33N 30°03' W 090°36'0 0.0
2014-Jul-13 09:32N 30°03' W 090°36'0 0.0
2014-Jul-12 14:05N 30°03' W 090°36'0 0.0
2014-Jul-12 13:33N 30°03' W 090°36'0 0.0
2014-Jul-12 12:32N 30°03' W 090°36'0 0.0
2014-Jul-12 11:33N 30°03' W 090°36'0 0.0
2014-Jul-12 10:33N 30°03' W 090°36'0 0.0
2014-Jul-12 09:33N 30°03' W 090°36'0 0.0
2014-Jul-12 08:33N 30°03' W 090°36'0 0.0
2014-Jul-12 07:34N 30°03' W 090°36'0 0.0
2014-Jul-12 06:33N 30°03' W 090°36'0 0.0
2014-Jul-12 05:33N 30°03' W 090°36'0 0.0
2014-Jul-11 13:16N 30°03' W 090°35'0 0.0
2014-Jul-11 12:30N 30°03' W 090°35'0 0.0
2014-Jul-11 11:31N 30°03' W 090°35'0 0.0
2014-Jul-11 10:31N 30°03' W 090°35'0 0.0
2014-Jul-11 09:05N 30°03' W 090°35'0 0.0
2014-Jul-11 04:24N 30°03' W 090°35'0 0.0
2014-Jul-11 03:24N 30°03' W 090°35'0 0.0
2014-Jul-11 02:10N 30°03' W 090°35'0 0.0
2014-Jul-11 01:32N 30°03' W 090°35'0 0.0
2014-Jul-10 06:20N 30°03' W 090°35'0 0.0
2014-Jul-10 05:33N 30°03' W 090°35'0 0.0
2014-Jul-10 04:33N 30°03' W 090°35'0 0.0
2014-Jul-10 03:33N 30°03' W 090°35'0 0.0
2014-Jul-10 02:33N 30°03' W 090°35'0 0.0
2014-Jul-10 01:33N 30°03' W 090°35'0 0.0
2014-Jul-10 00:33N 30°03' W 090°35'0 0.0
2014-Jul-09 23:05N 30°03' W 090°35'1 2.4
2014-Jul-09 22:27N 30°02' W 090°37'11 2.9
2014-Jul-09 18:33N 29°60' W 090°50'  
Track history (hours):
 
Tides and Currents Weather Stations Pressure Air Temp Water Temp Dewpoint Dewpoint Depression Visibility Wind Speed Wind Dir Waves Ship Positions

City Of Vicksburg

More information available from US FCC via Universal Licensing System and Coast Guard Vessel Documentation Center.

Last reported at 2014-Jul-14 11:32 UTC. Time now 2014-Jul-24 19:19 UTC.
Position N 30°13' W 091°09'.
Warning: this ship's position is 10 days out of date.

Length 320 m.

Type: Towing. MMSI: 366996120.

Date/timePositionNaut miles runAvg speedWind from/ knotsBaromVisibWave heightAir tempDewpointWater temp
2014-Jul-14 11:32N 30°13' W 091°09'3 2.3
2014-Jul-14 10:14N 30°12' W 091°06'6 3.4
2014-Jul-14 08:30N 30°08' W 091°02'4 4.2
2014-Jul-14 07:28N 30°07' W 090°57'2 1.8
2014-Jul-14 06:08N 30°05' W 090°55'3 4.4
2014-Jul-14 05:24N 30°04' W 090°51'4 4.8
2014-Jul-14 04:34N 29°60' W 090°50'4 3.9
2014-Jul-14 03:32N 30°01' W 090°46'5 4.9
2014-Jul-14 02:33N 30°03' W 090°40'4 3.5
2014-Jul-14 01:29N 30°03' W 090°36'0 0.2
2014-Jul-13 23:21N 30°03' W 090°36'0 0.0
2014-Jul-13 22:33N 30°03' W 090°36'0 0.0
2014-Jul-13 12:33N 30°03' W 090°36'0 0.0
2014-Jul-13 09:32N 30°03' W 090°36'0 0.0
2014-Jul-12 14:05N 30°03' W 090°36'0 0.0
2014-Jul-12 13:33N 30°03' W 090°36'0 0.0
2014-Jul-12 12:32N 30°03' W 090°36'0 0.0
2014-Jul-12 11:33N 30°03' W 090°36'0 0.0
2014-Jul-12 10:33N 30°03' W 090°36'0 0.0
2014-Jul-12 09:33N 30°03' W 090°36'0 0.0
2014-Jul-12 08:33N 30°03' W 090°36'0 0.0
2014-Jul-12 07:34N 30°03' W 090°36'0 0.0
2014-Jul-12 06:33N 30°03' W 090°36'0 0.0
2014-Jul-12 05:33N 30°03' W 090°36'0 0.0
2014-Jul-11 13:16N 30°03' W 090°35'0 0.0
2014-Jul-11 12:30N 30°03' W 090°35'0 0.0
2014-Jul-11 11:31N 30°03' W 090°35'0 0.0
2014-Jul-11 10:31N 30°03' W 090°35'0 0.0
2014-Jul-11 09:05N 30°03' W 090°35'0 0.0
2014-Jul-11 04:24N 30°03' W 090°35'0 0.0
2014-Jul-11 03:24N 30°03' W 090°35'0 0.0
2014-Jul-11 02:10N 30°03' W 090°35'0 0.0
2014-Jul-11 01:32N 30°03' W 090°35'0 0.0
2014-Jul-10 06:20N 30°03' W 090°35'0 0.0
2014-Jul-10 05:33N 30°03' W 090°35'0 0.0
2014-Jul-10 04:33N 30°03' W 090°35'0 0.0
2014-Jul-10 03:33N 30°03' W 090°35'0 0.0
2014-Jul-10 02:33N 30°03' W 090°35'0 0.0
2014-Jul-10 01:33N 30°03' W 090°35'0 0.0
2014-Jul-10 00:33N 30°03' W 090°35'0 0.0
2014-Jul-09 23:05N 30°03' W 090°35'1 2.4
2014-Jul-09 22:27N 30°02' W 090°37'11 2.9
2014-Jul-09 18:33N 29°60' W 090°50'  

Dump ship's entire track history